sensor_id;sensor_type;location;lat;lon;timestamp;pressure;altitude;pressure_sealevel;temperature;humidity
24892;BME280;12954;50.688;10.908;2023-03-21T00:01:53;95703.19;;;6.34;56.55
24892;BME280;12954;50.688;10.908;2023-03-21T00:04:23;95737.53;;;6.59;56.63
24892;BME280;12954;50.688;10.908;2023-03-21T00:06:52;95733.75;;;6.60;56.37
24892;BME280;12954;50.688;10.908;2023-03-21T00:09:20;95729.53;;;6.64;56.19
24892;BME280;12954;50.688;10.908;2023-03-21T00:11:49;95726.09;;;6.68;56.19
24892;BME280;12954;50.688;10.908;2023-03-21T00:14:17;95732.03;;;6.71;56.37
24892;BME280;12954;50.688;10.908;2023-03-21T00:16:46;95726.91;;;6.69;56.43
24892;BME280;12954;50.688;10.908;2023-03-21T00:19:20;95707.69;;;6.50;56.40
24892;BME280;12954;50.688;10.908;2023-03-21T00:21:51;95734.72;;;6.71;56.60
24892;BME280;12954;50.688;10.908;2023-03-21T00:24:34;95740.06;;;6.71;56.62
24892;BME280;12954;50.688;10.908;2023-03-21T00:27:03;95730.66;;;6.68;56.55
24892;BME280;12954;50.688;10.908;2023-03-21T00:29:51;95727.66;;;6.64;56.52
24892;BME280;12954;50.688;10.908;2023-03-21T00:32:20;95729.84;;;6.67;56.37
24892;BME280;12954;50.688;10.908;2023-03-21T00:34:50;95718.00;;;6.63;56.71
24892;BME280;12954;50.688;10.908;2023-03-21T00:37:39;95677.56;;;6.43;56.67
24892;BME280;12954;50.688;10.908;2023-03-21T00:40:08;95722.84;;;6.66;56.61
24892;BME280;12954;50.688;10.908;2023-03-21T00:42:51;95720.63;;;6.58;56.81
24892;BME280;12954;50.688;10.908;2023-03-21T00:45:19;95649.75;;;6.01;56.96
24892;BME280;12954;50.688;10.908;2023-03-21T00:47:48;95711.22;;;6.56;57.20
24892;BME280;12954;50.688;10.908;2023-03-21T00:50:18;95711.97;;;6.51;57.29
24892;BME280;12954;50.688;10.908;2023-03-21T00:52:46;95712.09;;;6.40;57.77
24892;BME280;12954;50.688;10.908;2023-03-21T00:55:17;95706.06;;;6.49;57.50
24892;BME280;12954;50.688;10.908;2023-03-21T00:57:46;95703.09;;;6.51;57.57
24892;BME280;12954;50.688;10.908;2023-03-21T01:00:27;95700.75;;;6.54;57.56
24892;BME280;12954;50.688;10.908;2023-03-21T01:02:55;95694.31;;;6.55;57.70
24892;BME280;12954;50.688;10.908;2023-03-21T01:05:43;95694.28;;;6.50;57.66
24892;BME280;12954;50.688;10.908;2023-03-21T01:08:33;95690.47;;;6.46;57.73
24892;BME280;12954;50.688;10.908;2023-03-21T01:11:19;95686.25;;;6.50;57.64
24892;BME280;12954;50.688;10.908;2023-03-21T01:13:48;95684.09;;;6.52;57.67
24892;BME280;12954;50.688;10.908;2023-03-21T01:16:25;95688.16;;;6.55;57.94
24892;BME280;12954;50.688;10.908;2023-03-21T01:18:54;95683.59;;;6.55;58.11
24892;BME280;12954;50.688;10.908;2023-03-21T01:21:24;95642.06;;;6.31;57.98
24892;BME280;12954;50.688;10.908;2023-03-21T01:23:53;95660.94;;;6.41;58.13
24892;BME280;12954;50.688;10.908;2023-03-21T01:26:21;95688.47;;;6.58;58.17
24892;BME280;12954;50.688;10.908;2023-03-21T01:28:49;95680.94;;;6.55;57.99
24892;BME280;12954;50.688;10.908;2023-03-21T01:31:18;95670.72;;;6.52;58.28
24892;BME280;12954;50.688;10.908;2023-03-21T01:33:47;95649.28;;;6.31;58.10
24892;BME280;12954;50.688;10.908;2023-03-21T01:36:18;95678.25;;;6.55;58.24
24892;BME280;12954;50.688;10.908;2023-03-21T01:38:51;95678.88;;;6.62;57.94
24892;BME280;12954;50.688;10.908;2023-03-21T01:41:24;95673.19;;;6.59;57.97
24892;BME280;12954;50.688;10.908;2023-03-21T01:44:10;95675.56;;;6.55;57.92
24892;BME280;12954;50.688;10.908;2023-03-21T01:46:42;95673.38;;;6.52;58.25
24892;BME280;12954;50.688;10.908;2023-03-21T01:49:28;95672.56;;;6.52;58.46
24892;BME280;12954;50.688;10.908;2023-03-21T01:52:04;95664.00;;;6.50;58.13
24892;BME280;12954;50.688;10.908;2023-03-21T01:54:45;95668.53;;;6.49;58.25
24892;BME280;12954;50.688;10.908;2023-03-21T01:57:17;95663.03;;;6.39;58.17
24892;BME280;12954;50.688;10.908;2023-03-21T01:59:53;95682.97;;;6.48;58.15
24892;BME280;12954;50.688;10.908;2023-03-21T02:02:25;95670.91;;;6.46;58.14
24892;BME280;12954;50.688;10.908;2023-03-21T02:04:54;95655.28;;;6.38;58.40
24892;BME280;12954;50.688;10.908;2023-03-21T02:07:27;95670.03;;;6.40;58.27
24892;BME280;12954;50.688;10.908;2023-03-21T02:09:57;95663.63;;;6.41;58.34
24892;BME280;12954;50.688;10.908;2023-03-21T02:12:26;95666.81;;;6.38;58.34
24892;BME280;12954;50.688;10.908;2023-03-21T02:14:56;95667.63;;;6.39;58.28
24892;BME280;12954;50.688;10.908;2023-03-21T02:17:28;95661.19;;;6.40;58.35
24892;BME280;12954;50.688;10.908;2023-03-21T02:20:26;95657.41;;;6.36;58.28
24892;BME280;12954;50.688;10.908;2023-03-21T02:23:23;95651.22;;;6.35;58.28
24892;BME280;12954;50.688;10.908;2023-03-21T02:26:17;95649.59;;;6.34;58.46
24892;BME280;12954;50.688;10.908;2023-03-21T02:29:13;95648.78;;;6.34;58.51
24892;BME280;12954;50.688;10.908;2023-03-21T02:31:49;95643.75;;;6.37;58.52
24892;BME280;12954;50.688;10.908;2023-03-21T02:37:44;95637.38;;;6.43;58.45
24892;BME280;12954;50.688;10.908;2023-03-21T02:40:30;95632.84;;;6.44;58.37
24892;BME280;12954;50.688;10.908;2023-03-21T02:43:06;95604.97;;;6.18;58.30
24892;BME280;12954;50.688;10.908;2023-03-21T02:45:51;95626.00;;;6.31;58.29
24892;BME280;12954;50.688;10.908;2023-03-21T02:48:23;95640.53;;;6.35;58.59
24892;BME280;12954;50.688;10.908;2023-03-21T02:51:12;95649.06;;;6.32;58.91
24892;BME280;12954;50.688;10.908;2023-03-21T02:53:48;95644.25;;;6.34;58.90
24892;BME280;12954;50.688;10.908;2023-03-21T02:56:37;95633.53;;;6.34;58.85
24892;BME280;12954;50.688;10.908;2023-03-21T02:59:07;95632.22;;;6.37;58.79
24892;BME280;12954;50.688;10.908;2023-03-21T03:01:36;95637.06;;;6.40;58.72
24892;BME280;12954;50.688;10.908;2023-03-21T03:04:17;95631.22;;;6.43;58.88
24892;BME280;12954;50.688;10.908;2023-03-21T03:07:01;95620.69;;;6.36;58.99
24892;BME280;12954;50.688;10.908;2023-03-21T03:09:38;95623.44;;;6.41;59.06
24892;BME280;12954;50.688;10.908;2023-03-21T03:12:18;95633.66;;;6.44;59.30
24892;BME280;12954;50.688;10.908;2023-03-21T03:14:52;95607.94;;;6.48;59.18
24892;BME280;12954;50.688;10.908;2023-03-21T03:17:39;95609.63;;;6.54;59.09
24892;BME280;12954;50.688;10.908;2023-03-21T03:20:17;95609.09;;;6.57;59.00
24892;BME280;12954;50.688;10.908;2023-03-21T03:22:54;95611.28;;;6.60;59.05
24892;BME280;12954;50.688;10.908;2023-03-21T03:25:29;95614.53;;;6.62;58.91
24892;BME280;12954;50.688;10.908;2023-03-21T03:28:08;95595.13;;;6.50;59.12
24892;BME280;12954;50.688;10.908;2023-03-21T03:30:39;95613.41;;;6.58;59.09
24892;BME280;12954;50.688;10.908;2023-03-21T03:33:27;95546.41;;;6.05;59.07
24892;BME280;12954;50.688;10.908;2023-03-21T03:35:58;95580.75;;;6.35;59.05
24892;BME280;12954;50.688;10.908;2023-03-21T03:38:33;95603.25;;;6.60;58.94
24892;BME280;12954;50.688;10.908;2023-03-21T03:41:08;95603.75;;;6.57;59.05
24892;BME280;12954;50.688;10.908;2023-03-21T03:43:40;95550.28;;;6.14;59.02
24892;BME280;12954;50.688;10.908;2023-03-21T03:46:19;95613.94;;;6.55;58.71
24892;BME280;12954;50.688;10.908;2023-03-21T03:48:53;95554.25;;;6.11;58.74
24892;BME280;12954;50.688;10.908;2023-03-21T03:51:26;95610.03;;;6.41;58.92
24892;BME280;12954;50.688;10.908;2023-03-21T03:53:58;95624.47;;;6.40;59.22
24892;BME280;12954;50.688;10.908;2023-03-21T03:56:30;95617.78;;;6.38;59.44
24892;BME280;12954;50.688;10.908;2023-03-21T03:59:01;95514.22;;;5.73;59.55
24892;BME280;12954;50.688;10.908;2023-03-21T04:01:32;95609.19;;;6.36;59.64
24892;BME280;12954;50.688;10.908;2023-03-21T04:04:00;95597.66;;;6.35;59.84
24892;BME280;12954;50.688;10.908;2023-03-21T04:06:39;95601.94;;;6.36;59.81
24892;BME280;12954;50.688;10.908;2023-03-21T04:09:07;95540.50;;;6.03;59.87
24892;BME280;12954;50.688;10.908;2023-03-21T04:11:49;95601.94;;;6.36;60.02
24892;BME280;12954;50.688;10.908;2023-03-21T04:14:17;95604.59;;;6.36;59.91
24892;BME280;12954;50.688;10.908;2023-03-21T04:16:46;95598.47;;;6.36;59.89
24892;BME280;12954;50.688;10.908;2023-03-21T04:19:15;95593.88;;;6.36;59.79
24892;BME280;12954;50.688;10.908;2023-03-21T04:21:44;95600.88;;;6.37;59.80
24892;BME280;12954;50.688;10.908;2023-03-21T04:24:13;95550.41;;;6.02;59.74
24892;BME280;12954;50.688;10.908;2023-03-21T04:26:41;95604.59;;;6.36;59.94
24892;BME280;12954;50.688;10.908;2023-03-21T04:29:11;95612.66;;;6.36;59.98
24892;BME280;12954;50.688;10.908;2023-03-21T04:31:40;95612.66;;;6.36;59.87
24892;BME280;12954;50.688;10.908;2023-03-21T04:34:09;95611.00;;;6.30;60.15
24892;BME280;12954;50.688;10.908;2023-03-21T04:36:38;95612.88;;;6.30;60.30
24892;BME280;12954;50.688;10.908;2023-03-21T04:39:10;95617.41;;;6.29;60.40
24892;BME280;12954;50.688;10.908;2023-03-21T04:41:39;95620.63;;;6.31;60.28
24892;BME280;12954;50.688;10.908;2023-03-21T04:44:08;95614.78;;;6.34;60.37
24892;BME280;12954;50.688;10.908;2023-03-21T04:46:39;95567.28;;;6.03;60.29
24892;BME280;12954;50.688;10.908;2023-03-21T04:49:08;95601.38;;;6.34;60.31
24892;BME280;12954;50.688;10.908;2023-03-21T04:51:36;95607.03;;;6.38;60.36
24892;BME280;12954;50.688;10.908;2023-03-21T04:54:05;95615.41;;;6.41;60.29
24892;BME280;12954;50.688;10.908;2023-03-21T04:56:33;95601.28;;;6.24;60.62
24892;BME280;12954;50.688;10.908;2023-03-21T04:59:05;95614.81;;;6.39;60.59
24892;BME280;12954;50.688;10.908;2023-03-21T05:01:34;95615.63;;;6.40;60.36
24892;BME280;12954;50.688;10.908;2023-03-21T05:04:04;95612.44;;;6.43;60.22
24892;BME280;12954;50.688;10.908;2023-03-21T05:06:33;95612.94;;;6.40;60.47
24892;BME280;12954;50.688;10.908;2023-03-21T05:09:03;95612.72;;;6.41;60.46
24892;BME280;12954;50.688;10.908;2023-03-21T05:11:32;95608.91;;;6.37;60.68
24892;BME280;12954;50.688;10.908;2023-03-21T05:14:04;95578.22;;;6.23;60.68
24892;BME280;12954;50.688;10.908;2023-03-21T05:16:32;95592.78;;;6.32;60.55
24892;BME280;12954;50.688;10.908;2023-03-21T05:19:03;95591.28;;;6.41;60.63
24892;BME280;12954;50.688;10.908;2023-03-21T05:21:32;95593.97;;;6.41;60.94
24892;BME280;12954;50.688;10.908;2023-03-21T05:24:07;95577.47;;;6.28;60.81
24892;BME280;12954;50.688;10.908;2023-03-21T05:26:38;95595.56;;;6.42;60.89
24892;BME280;12954;50.688;10.908;2023-03-21T05:29:07;95598.25;;;6.42;61.06
24892;BME280;12954;50.688;10.908;2023-03-21T05:31:36;95566.47;;;6.24;60.83
24892;BME280;12954;50.688;10.908;2023-03-21T05:34:06;95592.09;;;6.42;61.05
24892;BME280;12954;50.688;10.908;2023-03-21T05:36:34;95594.50;;;6.43;61.19
24892;BME280;12954;50.688;10.908;2023-03-21T05:39:03;95597.31;;;6.53;60.80
24892;BME280;12954;50.688;10.908;2023-03-21T05:41:31;95603.16;;;6.50;60.81
24892;BME280;12954;50.688;10.908;2023-03-21T05:44:00;95604.25;;;6.54;60.76
24892;BME280;12954;50.688;10.908;2023-03-21T05:46:28;95584.00;;;6.37;60.95
24892;BME280;12954;50.688;10.908;2023-03-21T05:48:56;95579.06;;;6.24;61.28
24892;BME280;12954;50.688;10.908;2023-03-21T05:51:26;95598.03;;;6.49;61.25
24892;BME280;12954;50.688;10.908;2023-03-21T05:53:55;95595.63;;;6.47;61.40
24892;BME280;12954;50.688;10.908;2023-03-21T05:56:23;95591.38;;;6.51;61.41
24892;BME280;12954;50.688;10.908;2023-03-21T05:58:52;95593.53;;;6.54;61.16
24892;BME280;12954;50.688;10.908;2023-03-21T06:01:20;95593.53;;;6.54;61.17
24892;BME280;12954;50.688;10.908;2023-03-21T06:03:48;95557.69;;;6.34;61.60
24892;BME280;12954;50.688;10.908;2023-03-21T06:06:17;95595.47;;;6.59;61.07
24892;BME280;12954;50.688;10.908;2023-03-21T06:08:46;95593.09;;;6.62;60.85
24892;BME280;12954;50.688;10.908;2023-03-21T06:11:21;95588.81;;;6.66;60.82
24892;BME280;12954;50.688;10.908;2023-03-21T06:13:50;95585.09;;;6.67;60.86
24892;BME280;12954;50.688;10.908;2023-03-21T06:16:18;95581.31;;;6.68;60.75
24892;BME280;12954;50.688;10.908;2023-03-21T06:18:47;95584.59;;;6.71;60.54
24892;BME280;12954;50.688;10.908;2023-03-21T06:21:15;95569.25;;;6.66;60.31
24892;BME280;12954;50.688;10.908;2023-03-21T06:23:43;95582.75;;;6.76;60.20
24892;BME280;12954;50.688;10.908;2023-03-21T06:26:14;95588.34;;;6.75;60.04
24892;BME280;12954;50.688;10.908;2023-03-21T06:28:42;95589.22;;;6.80;59.83
24892;BME280;12954;50.688;10.908;2023-03-21T06:31:10;95583.13;;;6.90;59.48
24892;BME280;12954;50.688;10.908;2023-03-21T06:33:39;95583.94;;;6.90;59.67
24892;BME280;12954;50.688;10.908;2023-03-21T06:36:08;95577.75;;;6.90;59.43
24892;BME280;12954;50.688;10.908;2023-03-21T06:38:37;95582.53;;;6.83;59.58
24892;BME280;12954;50.688;10.908;2023-03-21T06:41:06;95576.59;;;6.81;59.47
24892;BME280;12954;50.688;10.908;2023-03-21T06:43:36;95580.59;;;6.73;59.58
24892;BME280;12954;50.688;10.908;2023-03-21T06:46:04;95579.22;;;6.71;59.55
24892;BME280;12954;50.688;10.908;2023-03-21T06:48:33;95566.88;;;6.69;59.38
24892;BME280;12954;50.688;10.908;2023-03-21T06:51:01;95586.69;;;6.68;59.44
24892;BME280;12954;50.688;10.908;2023-03-21T06:53:30;95580.53;;;6.68;59.27
24892;BME280;12954;50.688;10.908;2023-03-21T06:56:01;95586.19;;;6.72;59.37
24892;BME280;12954;50.688;10.908;2023-03-21T06:58:31;95585.13;;;6.73;59.19
24892;BME280;12954;50.688;10.908;2023-03-21T07:01:01;95582.72;;;6.71;59.25
24892;BME280;12954;50.688;10.908;2023-03-21T07:03:29;95587.00;;;6.72;59.23
24892;BME280;12954;50.688;10.908;2023-03-21T07:06:03;95580.03;;;6.71;59.25
24892;BME280;12954;50.688;10.908;2023-03-21T07:08:31;95577.09;;;6.73;59.27
24892;BME280;12954;50.688;10.908;2023-03-21T07:10:59;95586.78;;;6.79;59.21
24892;BME280;12954;50.688;10.908;2023-03-21T07:13:28;95585.81;;;6.90;59.00
24892;BME280;12954;50.688;10.908;2023-03-21T07:15:57;95589.59;;;6.94;58.95
24892;BME280;12954;50.688;10.908;2023-03-21T07:18:27;95583.19;;;6.95;59.12
24892;BME280;12954;50.688;10.908;2023-03-21T07:20:56;95548.22;;;6.85;58.98
24892;BME280;12954;50.688;10.908;2023-03-21T07:23:26;95576.84;;;7.11;58.83
24892;BME280;12954;50.688;10.908;2023-03-21T07:25:55;95577.38;;;7.13;59.07
24892;BME280;12954;50.688;10.908;2023-03-21T07:28:24;95582.03;;;7.22;58.69
24892;BME280;12954;50.688;10.908;2023-03-21T07:30:53;95574.75;;;7.18;58.63
24892;BME280;12954;50.688;10.908;2023-03-21T07:33:23;95591.19;;;7.32;58.55
24892;BME280;12954;50.688;10.908;2023-03-21T07:35:53;95591.03;;;7.48;58.03
24892;BME280;12954;50.688;10.908;2023-03-21T07:38:24;95586.19;;;7.45;58.06
24892;BME280;12954;50.688;10.908;2023-03-21T07:40:52;95590.16;;;7.38;58.51
24892;BME280;12954;50.688;10.908;2023-03-21T07:43:21;95598.53;;;7.41;58.79
24892;BME280;12954;50.688;10.908;2023-03-21T07:45:49;95591.53;;;7.45;58.94
24892;BME280;12954;50.688;10.908;2023-03-21T07:48:17;95592.94;;;7.53;58.84
24892;BME280;12954;50.688;10.908;2023-03-21T07:50:48;95595.03;;;7.93;57.54
24892;BME280;12954;50.688;10.908;2023-03-21T07:53:18;95593.28;;;7.66;58.48
24892;BME280;12954;50.688;10.908;2023-03-21T07:55:49;95555.88;;;7.50;58.36
24892;BME280;12954;50.688;10.908;2023-03-21T07:58:17;95585.03;;;7.73;58.65
24892;BME280;12954;50.688;10.908;2023-03-21T08:00:46;95552.38;;;7.44;58.99
24892;BME280;12954;50.688;10.908;2023-03-21T08:03:14;95583.72;;;7.80;59.00
24892;BME280;12954;50.688;10.908;2023-03-21T08:05:43;95586.47;;;7.96;58.99
24892;BME280;12954;50.688;10.908;2023-03-21T08:08:12;95581.94;;;8.06;58.98
24892;BME280;12954;50.688;10.908;2023-03-21T08:10:42;95584.66;;;8.21;58.77
24892;BME280;12954;50.688;10.908;2023-03-21T08:13:11;95589.25;;;8.36;58.09
24892;BME280;12954;50.688;10.908;2023-03-21T08:15:39;95594.91;;;8.40;58.03
24892;BME280;12954;50.688;10.908;2023-03-21T08:18:08;95585.00;;;8.50;57.61
24892;BME280;12954;50.688;10.908;2023-03-21T08:20:38;95564.28;;;8.46;57.54
24892;BME280;12954;50.688;10.908;2023-03-21T08:23:07;95579.63;;;8.65;57.54
24892;BME280;12954;50.688;10.908;2023-03-21T08:25:35;95574.81;;;8.67;57.53
24892;BME280;12954;50.688;10.908;2023-03-21T08:28:06;95584.75;;;8.72;57.30
24892;BME280;12954;50.688;10.908;2023-03-21T08:30:34;95574.81;;;8.82;57.33
24892;BME280;12954;50.688;10.908;2023-03-21T08:33:03;95587.72;;;9.01;56.58
24892;BME280;12954;50.688;10.908;2023-03-21T08:35:31;95584.25;;;9.10;55.13
24892;BME280;12954;50.688;10.908;2023-03-21T08:38:01;95546.28;;;8.71;54.94
24892;BME280;12954;50.688;10.908;2023-03-21T08:40:29;95553.28;;;8.52;55.77
24892;BME280;12954;50.688;10.908;2023-03-21T08:42:58;95555.72;;;8.79;54.85
24892;BME280;12954;50.688;10.908;2023-03-21T08:45:28;95584.78;;;8.82;54.95
24892;BME280;12954;50.688;10.908;2023-03-21T08:47:56;95593.63;;;8.67;55.55
24892;BME280;12954;50.688;10.908;2023-03-21T08:50:25;95593.63;;;8.67;55.77
24892;BME280;12954;50.688;10.908;2023-03-21T08:52:56;95593.63;;;8.67;56.13
24892;BME280;12954;50.688;10.908;2023-03-21T08:55:25;95597.38;;;8.71;56.19
24892;BME280;12954;50.688;10.908;2023-03-21T08:57:53;95593.09;;;8.75;56.18
24892;BME280;12954;50.688;10.908;2023-03-21T09:00:23;95596.88;;;8.79;56.11
24892;BME280;12954;50.688;10.908;2023-03-21T09:02:53;95586.66;;;8.76;55.96
24892;BME280;12954;50.688;10.908;2023-03-21T09:05:22;95562.97;;;8.53;55.66
24892;BME280;12954;50.688;10.908;2023-03-21T09:07:51;95586.63;;;8.61;55.66
24892;BME280;12954;50.688;10.908;2023-03-21T09:10:22;95585.00;;;8.60;55.82
24892;BME280;12954;50.688;10.908;2023-03-21T09:12:52;95552.19;;;8.38;55.41
24892;BME280;12954;50.688;10.908;2023-03-21T09:15:22;95578.00;;;8.54;55.69
24892;BME280;12954;50.688;10.908;2023-03-21T09:17:52;95587.69;;;8.65;55.19
24892;BME280;12954;50.688;10.908;2023-03-21T09:20:24;95581.78;;;8.63;55.43
24892;BME280;12954;50.688;10.908;2023-03-21T09:22:58;95578.59;;;8.81;55.16
24892;BME280;12954;50.688;10.908;2023-03-21T09:25:26;95564.84;;;8.63;55.63
24892;BME280;12954;50.688;10.908;2023-03-21T09:27:57;95572.66;;;8.84;55.35
24892;BME280;12954;50.688;10.908;2023-03-21T09:30:26;95581.81;;;8.93;55.28
24892;BME280;12954;50.688;10.908;2023-03-21T09:32:57;95565.66;;;8.78;55.20
24892;BME280;12954;50.688;10.908;2023-03-21T09:35:27;95569.97;;;9.10;54.51
24892;BME280;12954;50.688;10.908;2023-03-21T09:37:55;95575.88;;;9.02;54.88
24892;BME280;12954;50.688;10.908;2023-03-21T09:40:37;95584.75;;;9.07;54.79
24892;BME280;12954;50.688;10.908;2023-03-21T09:43:16;95583.44;;;9.10;54.77
24892;BME280;12954;50.688;10.908;2023-03-21T09:45:54;95579.94;;;8.94;55.34
24892;BME280;12954;50.688;10.908;2023-03-21T09:48:36;95579.66;;;8.90;55.72
24892;BME280;12954;50.688;10.908;2023-03-21T09:51:22;95583.41;;;9.05;55.84
24892;BME280;12954;50.688;10.908;2023-03-21T09:53:55;95576.97;;;9.16;55.75
24892;BME280;12954;50.688;10.908;2023-03-21T09:56:25;95561.91;;;9.20;55.64
24892;BME280;12954;50.688;10.908;2023-03-21T09:58:55;95571.59;;;9.26;55.94
24892;BME280;12954;50.688;10.908;2023-03-21T10:01:28;95553.75;;;9.60;54.90
24892;BME280;12954;50.688;10.908;2023-03-21T10:04:02;95575.56;;;9.64;54.86
24892;BME280;12954;50.688;10.908;2023-03-21T10:06:33;95555.88;;;9.68;54.92
24892;BME280;12954;50.688;10.908;2023-03-21T10:09:09;95546.19;;;9.62;55.00
24892;BME280;12954;50.688;10.908;2023-03-21T10:11:40;95573.66;;;9.59;55.46
24892;BME280;12954;50.688;10.908;2023-03-21T10:14:15;95564.44;;;9.85;54.78
24892;BME280;12954;50.688;10.908;2023-03-21T10:16:48;95565.44;;;10.04;54.18
24892;BME280;12954;50.688;10.908;2023-03-21T10:19:19;95561.13;;;10.09;53.99
24892;BME280;12954;50.688;10.908;2023-03-21T10:21:48;95549.44;;;10.18;53.93
24892;BME280;12954;50.688;10.908;2023-03-21T10:24:28;95560.75;;;10.25;53.87
24892;BME280;12954;50.688;10.908;2023-03-21T10:26:59;95562.59;;;10.30;53.92
24892;BME280;12954;50.688;10.908;2023-03-21T10:29:32;95561.50;;;10.41;53.56
24892;BME280;12954;50.688;10.908;2023-03-21T10:32:03;95564.72;;;10.43;53.63
24892;BME280;12954;50.688;10.908;2023-03-21T10:34:36;95556.03;;;10.51;53.67
24892;BME280;12954;50.688;10.908;2023-03-21T10:37:05;95561.94;;;10.58;53.75
24892;BME280;12954;50.688;10.908;2023-03-21T10:39:35;95550.78;;;10.70;53.29
24892;BME280;12954;50.688;10.908;2023-03-21T10:42:05;95551.06;;;10.68;53.34
24892;BME280;12954;50.688;10.908;2023-03-21T10:44:34;95554.50;;;10.74;53.44
24892;BME280;12954;50.688;10.908;2023-03-21T10:47:05;95553.75;;;10.73;53.00
24892;BME280;12954;50.688;10.908;2023-03-21T10:49:37;95455.41;;;10.17;52.89
24892;BME280;12954;50.688;10.908;2023-03-21T10:52:27;95554.19;;;10.85;53.21
24892;BME280;12954;50.688;10.908;2023-03-21T10:55:15;95555.66;;;11.01;52.37
24892;BME280;12954;50.688;10.908;2023-03-21T10:57:45;95554.59;;;11.02;51.73
24892;BME280;12954;50.688;10.908;2023-03-21T11:00:19;95552.75;;;10.93;52.25
24892;BME280;12954;50.688;10.908;2023-03-21T11:02:50;95556.16;;;11.03;52.29
24892;BME280;12954;50.688;10.908;2023-03-21T11:05:24;95542.81;;;10.88;52.12
24892;BME280;12954;50.688;10.908;2023-03-21T11:07:57;95561.50;;;11.42;49.60
24892;BME280;12954;50.688;10.908;2023-03-21T11:10:29;95559.31;;;11.15;50.86
24892;BME280;12954;50.688;10.908;2023-03-21T11:13:02;95557.16;;;11.18;51.37
24892;BME280;12954;50.688;10.908;2023-03-21T11:15:37;95555.59;;;11.06;51.52
24892;BME280;12954;50.688;10.908;2023-03-21T11:18:16;95566.75;;;11.29;51.32
24892;BME280;12954;50.688;10.908;2023-03-21T11:20:51;95569.53;;;11.52;49.57
24892;BME280;12954;50.688;10.908;2023-03-21T11:23:21;95557.53;;;11.35;50.22
24892;BME280;12954;50.688;10.908;2023-03-21T11:25:53;95562.38;;;11.33;50.38
24892;BME280;12954;50.688;10.908;2023-03-21T11:28:25;95557.84;;;11.28;50.58
24892;BME280;12954;50.688;10.908;2023-03-21T11:31:01;95551.88;;;11.31;50.61
24892;BME280;12954;50.688;10.908;2023-03-21T11:33:33;95517.31;;;11.04;50.88
24892;BME280;12954;50.688;10.908;2023-03-21T11:36:06;95553.78;;;11.31;50.82
24892;BME280;12954;50.688;10.908;2023-03-21T11:38:37;95552.91;;;11.35;50.61
24892;BME280;12954;50.688;10.908;2023-03-21T11:41:06;95549.38;;;11.40;50.68
24892;BME280;12954;50.688;10.908;2023-03-21T11:43:36;95506.41;;;11.14;50.84
24892;BME280;12954;50.688;10.908;2023-03-21T11:46:07;95540.66;;;11.48;50.84
24892;BME280;12954;50.688;10.908;2023-03-21T11:48:38;95548.78;;;11.43;50.54
24892;BME280;12954;50.688;10.908;2023-03-21T11:51:17;95545.59;;;11.41;50.32
24892;BME280;12954;50.688;10.908;2023-03-21T11:53:57;95532.59;;;11.43;50.62
24892;BME280;12954;50.688;10.908;2023-03-21T11:56:31;95534.22;;;11.44;50.70
24892;BME280;12954;50.688;10.908;2023-03-21T11:59:10;95526.63;;;11.46;50.27
24892;BME280;12954;50.688;10.908;2023-03-21T12:01:52;95531.41;;;11.54;50.54
24892;BME280;12954;50.688;10.908;2023-03-21T12:04:38;95518.94;;;11.58;50.29
24892;BME280;12954;50.688;10.908;2023-03-21T12:07:34;95519.53;;;11.55;49.67
24892;BME280;12954;50.688;10.908;2023-03-21T12:10:25;95517.91;;;11.54;49.89
24892;BME280;12954;50.688;10.908;2023-03-21T12:13:01;95506.09;;;11.50;50.25
24892;BME280;12954;50.688;10.908;2023-03-21T12:15:38;95511.34;;;11.60;50.16
24892;BME280;12954;50.688;10.908;2023-03-21T12:18:17;95514.22;;;11.68;50.09
24892;BME280;12954;50.688;10.908;2023-03-21T12:20:52;95498.19;;;11.77;49.96
24892;BME280;12954;50.688;10.908;2023-03-21T12:23:34;95480.53;;;11.85;49.14
24892;BME280;12954;50.688;10.908;2023-03-21T12:26:17;95506.63;;;12.13;49.24
24892;BME280;12954;50.688;10.908;2023-03-21T12:28:58;95503.00;;;12.22;49.06
24892;BME280;12954;50.688;10.908;2023-03-21T12:31:39;95487.56;;;12.23;49.11
24892;BME280;12954;50.688;10.908;2023-03-21T12:34:19;95484.22;;;12.31;48.85
24892;BME280;12954;50.688;10.908;2023-03-21T12:37:05;95470.19;;;12.29;48.74
24892;BME280;12954;50.688;10.908;2023-03-21T12:39:39;95485.06;;;12.45;49.08
24892;BME280;12954;50.688;10.908;2023-03-21T12:42:25;95487.56;;;12.60;48.71
24892;BME280;12954;50.688;10.908;2023-03-21T12:45:02;95499.41;;;12.64;47.96
24892;BME280;12954;50.688;10.908;2023-03-21T12:47:43;95482.00;;;12.52;48.28
24892;BME280;12954;50.688;10.908;2023-03-21T12:50:18;95480.88;;;12.53;48.25
24892;BME280;12954;50.688;10.908;2023-03-21T12:52:51;95470.63;;;12.55;47.81
24892;BME280;12954;50.688;10.908;2023-03-21T12:55:24;95482.75;;;12.57;47.96
24892;BME280;12954;50.688;10.908;2023-03-21T12:57:57;95485.09;;;12.64;47.98
24892;BME280;12954;50.688;10.908;2023-03-21T13:00:27;95483.47;;;12.63;48.06
24892;BME280;12954;50.688;10.908;2023-03-21T13:03:03;95477.09;;;12.72;48.17
24892;BME280;12954;50.688;10.908;2023-03-21T13:05:34;95466.50;;;12.76;48.07
24892;BME280;12954;50.688;10.908;2023-03-21T13:08:06;95462.78;;;12.86;47.87
24892;BME280;12954;50.688;10.908;2023-03-21T13:10:41;95465.44;;;13.04;46.41
24892;BME280;12954;50.688;10.908;2023-03-21T13:13:18;95455.78;;;12.85;47.22
24892;BME280;12954;50.688;10.908;2023-03-21T13:15:54;95455.72;;;13.03;46.17
24892;BME280;12954;50.688;10.908;2023-03-21T13:18:43;95452.78;;;12.86;46.78
24892;BME280;12954;50.688;10.908;2023-03-21T13:21:19;95447.34;;;12.86;47.35
24892;BME280;12954;50.688;10.908;2023-03-21T13:23:58;95443.97;;;12.94;47.32
24892;BME280;12954;50.688;10.908;2023-03-21T13:26:39;95436.75;;;13.03;47.30
24892;BME280;12954;50.688;10.908;2023-03-21T13:29:30;95438.38;;;13.04;47.13
24892;BME280;12954;50.688;10.908;2023-03-21T13:32:07;95427.75;;;13.08;47.55